Time;durP1;ratioP1;P1;durP2;ratioP2;P2;SDS_P1;SDS_P2;PMS_P1;PMS_P2;Temp;Humidity;BMP_temperature;BMP_pressure;BME280_temperature;BME280_humidity;BME280_pressure;Samples;Min_cycle;Max_cycle;Signal;HPM_P1;HPM_P2
2022/11/22 00:01:12;;;;;;;5.40;2.93;;;;;;;;;;6224152;28;20541;-80
2022/11/22 00:04:13;;;;;;;9.50;4.45;;;;;;;;;;6209276;28;20103;-81
2022/11/22 00:07:15;;;;;;;8.63;3.13;;;;;;;;;;6204729;28;20048;-81
2022/11/22 00:10:17;;;;;;;8.35;3.95;;;;;;;;;;6206539;28;20041;-81
2022/11/22 00:13:20;;;;;;;8.05;2.97;;;;;;;;;;6205768;28;20573;-80
2022/11/22 00:16:21;;;;;;;7.57;4.13;;;;;;;;;;6203422;28;20083;-81
2022/11/22 00:19:23;;;;;;;8.77;3.60;;;;;;;;;;6228892;28;20148;-80
2022/11/22 00:22:25;;;;;;;5.15;3.28;;;;;;;;;;6208159;28;20587;-80
2022/11/22 00:25:27;;;;;;;7.70;3.38;;;;;;;;;;6213655;28;20230;-81
2022/11/22 00:28:28;;;;;;;8.15;3.75;;;;;;;;;;6215900;28;20136;-81
2022/11/22 00:31:30;;;;;;;6.47;3.03;;;;;;;;;;6207228;28;20050;-81
2022/11/22 00:34:32;;;;;;;9.15;4.43;;;;;;;;;;6206138;28;20105;-80
2022/11/22 00:37:34;;;;;;;6.18;3.55;;;;;;;;;;6228034;28;20046;-81
2022/11/22 00:40:35;;;;;;;8.10;3.85;;;;;;;;;;6229403;28;20512;-81
2022/11/22 00:43:37;;;;;;;11.45;5.15;;;;;;;;;;6203439;28;20128;-81
2022/11/22 00:46:39;;;;;;;7.25;3.88;;;;;;;;;;6207487;28;20057;-81
2022/11/22 00:49:40;;;;;;;7.97;3.50;;;;;;;;;;6212599;28;20117;-80
2022/11/22 00:52:42;;;;;;;7.18;3.78;;;;;;;;;;6198715;28;21236;-81
2022/11/22 00:55:44;;;;;;;7.25;3.50;;;;;;;;;;6241983;28;20038;-81
2022/11/22 00:58:46;;;;;;;10.57;3.47;;;;;;;;;;6211536;28;20061;-80
2022/11/22 01:01:47;;;;;;;7.60;3.53;;;;;;;;;;6222858;28;20122;-80
2022/11/22 01:04:49;;;;;;;12.27;4.65;;;;;;;;;;6253510;28;20534;-80
2022/11/22 01:07:51;;;;;;;6.97;3.05;;;;;;;;;;6210168;28;20047;-80
2022/11/22 01:10:57;;;;;;;7.03;3.53;;;;;;;;;;6207488;28;20053;-80
2022/11/22 01:14:00;;;;;;;6.82;3.70;;;;;;;;;;6210377;28;20050;-80
2022/11/22 01:17:02;;;;;;;10.10;3.90;;;;;;;;;;6207315;28;20413;-81
2022/11/22 01:20:04;;;;;;;8.23;3.50;;;;;;;;;;6209301;28;20200;-81
2022/11/22 01:23:06;;;;;;;5.28;3.08;;;;;;;;;;6208625;28;20196;-80
2022/11/22 01:26:08;;;;;;;7.43;3.33;;;;;;;;;;6213255;28;20528;-81
2022/11/22 01:29:09;;;;;;;12.13;3.88;;;;;;;;;;6216457;28;20067;-81
2022/11/22 01:32:11;;;;;;;9.65;3.85;;;;;;;;;;6212765;28;20063;-80
2022/11/22 01:35:13;;;;;;;8.25;3.60;;;;;;;;;;6216407;28;20329;-80
2022/11/22 01:38:15;;;;;;;8.73;3.63;;;;;;;;;;6212563;28;20493;-81
2022/11/22 01:41:19;;;;;;;6.32;3.35;;;;;;;;;;6212222;28;20045;-81
2022/11/22 01:44:30;;;;;;;4.28;2.83;;;;;;;;;;6215478;28;20327;-81
2022/11/22 01:47:32;;;;;;;6.13;3.38;;;;;;;;;;6208085;28;20042;-81
2022/11/22 01:50:36;;;;;;;5.82;3.53;;;;;;;;;;6211912;28;20068;-81
2022/11/22 01:53:38;;;;;;;4.18;2.65;;;;;;;;;;6215934;28;20139;-81
2022/11/22 01:56:45;;;;;;;3.92;2.75;;;;;;;;;;6231177;28;20049;-81
2022/11/22 01:59:52;;;;;;;7.40;3.60;;;;;;;;;;6230184;28;20667;-81
2022/11/22 02:03:00;;;;;;;5.15;2.95;;;;;;;;;;6215618;28;20050;-81
2022/11/22 02:06:03;;;;;;;7.05;3.25;;;;;;;;;;6218877;28;20294;-81
2022/11/22 02:09:11;;;;;;;5.25;2.85;;;;;;;;;;6213142;28;20050;-80
2022/11/22 02:12:14;;;;;;;4.47;2.67;;;;;;;;;;6211780;28;20049;-80
2022/11/22 02:15:16;;;;;;;5.78;2.80;;;;;;;;;;6215846;28;20108;-80
2022/11/22 02:18:18;;;;;;;5.72;2.97;;;;;;;;;;6209076;28;20053;-81
2022/11/22 02:21:20;;;;;;;5.63;2.88;;;;;;;;;;6206106;28;20183;-81
2022/11/22 02:24:30;;;;;;;5.35;2.90;;;;;;;;;;6214258;28;20720;-80
2022/11/22 02:27:32;;;;;;;4.63;2.60;;;;;;;;;;6208773;28;20851;-81
2022/11/22 02:30:35;;;;;;;11.02;2.85;;;;;;;;;;6209248;28;20133;-81
2022/11/22 02:33:37;;;;;;;6.00;3.08;;;;;;;;;;6218171;28;20122;-81
2022/11/22 02:36:44;;;;;;;5.13;3.47;;;;;;;;;;6204577;28;20037;-81
2022/11/22 02:39:48;;;;;;;5.15;2.80;;;;;;;;;;6209981;28;20064;-81
2022/11/22 02:43:03;;;;;;;4.88;2.72;;;;;;;;;;6214302;28;20097;-82
2022/11/22 02:46:11;;;;;;;7.93;2.97;;;;;;;;;;6216339;28;20489;-81
2022/11/22 02:49:15;;;;;;;5.18;2.90;;;;;;;;;;6208692;28;20064;-80
2022/11/22 02:52:18;;;;;;;5.00;3.47;;;;;;;;;;6228273;28;20042;-81
2022/11/22 02:55:19;;;;;;;8.98;3.45;;;;;;;;;;6227741;28;20087;-81
2022/11/22 02:58:21;;;;;;;3.83;2.72;;;;;;;;;;6213469;28;20050;-81
2022/11/22 03:01:23;;;;;;;7.00;3.47;;;;;;;;;;6208338;28;22011;-81
2022/11/22 03:04:25;;;;;;;7.25;3.50;;;;;;;;;;6208767;28;20555;-81
2022/11/22 03:07:26;;;;;;;7.45;3.15;;;;;;;;;;6224603;28;20497;-81
2022/11/22 03:10:28;;;;;;;5.20;3.17;;;;;;;;;;6220291;28;20061;-80
2022/11/22 03:13:30;;;;;;;6.97;3.30;;;;;;;;;;6209182;28;20128;-81
2022/11/22 03:16:31;;;;;;;3.83;2.58;;;;;;;;;;6201794;28;20509;-81
2022/11/22 03:19:33;;;;;;;4.85;3.03;;;;;;;;;;6213072;28;21836;-80
2022/11/22 03:22:35;;;;;;;7.22;2.78;;;;;;;;;;6206416;28;20103;-81
2022/11/22 03:25:37;;;;;;;4.65;3.05;;;;;;;;;;6213155;28;20410;-80
2022/11/22 03:28:39;;;;;;;4.32;2.42;;;;;;;;;;6211573;28;20093;-81
2022/11/22 03:31:41;;;;;;;4.40;2.47;;;;;;;;;;6203225;28;20049;-80
2022/11/22 03:34:43;;;;;;;5.30;3.00;;;;;;;;;;6212201;28;20169;-81
2022/11/22 03:37:44;;;;;;;4.60;2.75;;;;;;;;;;6211186;28;20088;-80
2022/11/22 03:40:46;;;;;;;6.63;2.88;;;;;;;;;;6214729;28;20045;-80
2022/11/22 03:43:48;;;;;;;3.90;2.58;;;;;;;;;;6215310;28;20077;-81
2022/11/22 03:46:49;;;;;;;6.47;3.40;;;;;;;;;;6208310;28;20128;-81
2022/11/22 03:49:51;;;;;;;5.25;3.38;;;;;;;;;;6208300;28;20061;-81
2022/11/22 03:52:53;;;;;;;8.45;4.40;;;;;;;;;;6220284;28;20347;-80
2022/11/22 03:55:54;;;;;;;6.75;3.45;;;;;;;;;;6204679;28;20049;-81
2022/11/22 03:58:56;;;;;;;5.32;2.90;;;;;;;;;;6211777;28;20050;-80
2022/11/22 04:01:58;;;;;;;5.35;3.08;;;;;;;;;;6200549;28;20425;-80
2022/11/22 04:05:00;;;;;;;5.53;2.78;;;;;;;;;;6200050;28;20053;-80
2022/11/22 04:08:02;;;;;;;7.32;3.88;;;;;;;;;;6210034;28;20140;-80
2022/11/22 04:11:03;;;;;;;6.60;3.53;;;;;;;;;;6209405;28;20053;-80
2022/11/22 04:17:42;;;;;;;5.88;3.05;;;;;;;;;;6207112;28;20053;-81
2022/11/22 04:27:29;;;;;;;4.03;2.90;;;;;;;;;;6212085;28;20052;-81
2022/11/22 04:33:51;;;;;;;3.55;3.08;;;;;;;;;;6214000;28;20076;-81
2022/11/22 04:36:53;;;;;;;4.97;3.20;;;;;;;;;;6208406;28;20445;-81
2022/11/22 04:39:55;;;;;;;8.70;3.95;;;;;;;;;;6193921;28;20123;-80
2022/11/22 04:46:22;;;;;;;7.43;4.05;;;;;;;;;;6158223;28;20155;-81
2022/11/22 04:49:23;;;;;;;7.72;3.75;;;;;;;;;;6206128;28;20053;-81
2022/11/22 04:55:46;;;;;;;5.20;3.25;;;;;;;;;;6207521;28;20100;-81
2022/11/22 04:58:50;;;;;;;5.35;3.45;;;;;;;;;;6205544;28;20080;-81
2022/11/22 05:01:52;;;;;;;6.05;3.45;;;;;;;;;;6210667;28;20042;-81
2022/11/22 05:04:53;;;;;;;8.43;3.72;;;;;;;;;;6210055;28;20053;-81
2022/11/22 05:07:57;;;;;;;6.05;3.92;;;;;;;;;;6222243;28;20290;-81
2022/11/22 05:10:59;;;;;;;7.25;4.60;;;;;;;;;;6213742;28;20050;-81
2022/11/22 05:14:00;;;;;;;6.57;3.65;;;;;;;;;;6206397;28;20175;-81
2022/11/22 05:17:03;;;;;;;6.88;4.05;;;;;;;;;;6207385;28;20134;-81
2022/11/22 05:20:06;;;;;;;3.90;3.40;;;;;;;;;;6214677;28;20045;-81
2022/11/22 05:26:31;;;;;;;7.18;4.20;;;;;;;;;;6207392;28;20449;-81
2022/11/22 05:29:33;;;;;;;10.30;3.90;;;;;;;;;;6209633;28;20126;-81
2022/11/22 05:32:34;;;;;;;7.07;3.95;;;;;;;;;;6212469;28;20176;-81
2022/11/22 05:35:36;;;;;;;8.05;4.38;;;;;;;;;;6203673;28;20129;-81
2022/11/22 05:38:38;;;;;;;12.25;6.68;;;;;;;;;;6217963;28;20387;-81
2022/11/22 05:41:54;;;;;;;44.75;20.42;;;;;;;;;;6203999;28;20101;-81
2022/11/22 05:44:56;;;;;;;11.77;5.95;;;;;;;;;;6206448;28;20053;-81
2022/11/22 05:47:58;;;;;;;11.00;6.07;;;;;;;;;;6212312;28;20053;-81
2022/11/22 05:51:08;;;;;;;12.38;5.57;;;;;;;;;;6206879;28;20686;-81
2022/11/22 05:54:10;;;;;;;8.57;4.65;;;;;;;;;;6210362;28;20042;-81
2022/11/22 05:57:12;;;;;;;16.75;7.50;;;;;;;;;;6213364;28;20716;-81
2022/11/22 06:00:14;;;;;;;13.30;6.97;;;;;;;;;;6215969;28;20049;-81
2022/11/22 06:03:15;;;;;;;14.40;6.45;;;;;;;;;;6221852;28;20049;-80
2022/11/22 06:06:17;;;;;;;15.32;8.07;;;;;;;;;;6206705;28;20046;-81
2022/11/22 06:09:19;;;;;;;19.95;7.95;;;;;;;;;;6228243;28;20056;-81
2022/11/22 06:12:21;;;;;;;9.63;5.10;;;;;;;;;;6210447;28;20133;-81
2022/11/22 06:15:22;;;;;;;11.63;5.75;;;;;;;;;;6212885;28;20046;-81
2022/11/22 06:18:24;;;;;;;13.18;5.90;;;;;;;;;;6222581;28;20052;-81
2022/11/22 06:21:27;;;;;;;10.43;5.40;;;;;;;;;;6212751;28;20130;-81
2022/11/22 06:24:29;;;;;;;10.73;4.43;;;;;;;;;;6210117;28;20067;-80
2022/11/22 06:27:30;;;;;;;7.30;4.57;;;;;;;;;;6214852;28;20464;-81
2022/11/22 06:30:32;;;;;;;14.07;5.15;;;;;;;;;;6213549;28;20123;-81
2022/11/22 06:33:34;;;;;;;13.75;4.68;;;;;;;;;;6213796;28;20116;-81
2022/11/22 06:36:36;;;;;;;6.60;4.03;;;;;;;;;;6218805;28;20049;-81
2022/11/22 06:39:38;;;;;;;20.48;7.13;;;;;;;;;;6216643;28;20141;-81
2022/11/22 06:42:40;;;;;;;15.13;7.47;;;;;;;;;;6211614;28;20520;-81
2022/11/22 06:45:41;;;;;;;15.05;7.03;;;;;;;;;;6210276;28;20073;-81
2022/11/22 06:48:44;;;;;;;10.85;5.13;;;;;;;;;;6203645;28;20601;-81
2022/11/22 06:51:45;;;;;;;12.20;6.25;;;;;;;;;;6230678;28;20115;-80
2022/11/22 06:54:47;;;;;;;26.33;9.57;;;;;;;;;;6209103;28;20072;-79
2022/11/22 06:57:50;;;;;;;16.67;6.07;;;;;;;;;;6220322;28;20489;-80
2022/11/22 07:00:52;;;;;;;13.88;6.78;;;;;;;;;;6214527;28;20191;-79
2022/11/22 07:03:56;;;;;;;16.15;6.60;;;;;;;;;;6218698;28;20331;-80
2022/11/22 07:06:59;;;;;;;12.98;6.45;;;;;;;;;;6212450;28;20066;-80
2022/11/22 07:10:01;;;;;;;10.57;5.88;;;;;;;;;;6210179;28;20059;-80
2022/11/22 07:13:02;;;;;;;14.50;6.25;;;;;;;;;;6221802;28;20474;-81
2022/11/22 07:16:06;;;;;;;13.10;6.63;;;;;;;;;;6211579;28;20065;-83
2022/11/22 07:19:08;;;;;;;18.80;6.88;;;;;;;;;;6230327;28;20451;-83
2022/11/22 07:22:10;;;;;;;9.37;4.33;;;;;;;;;;6196801;28;20046;-82
2022/11/22 07:25:12;;;;;;;15.27;6.55;;;;;;;;;;6207701;28;20522;-82
2022/11/22 07:28:15;;;;;;;12.40;5.72;;;;;;;;;;6207158;28;20099;-80
2022/11/22 07:31:17;;;;;;;9.52;4.35;;;;;;;;;;6227802;28;20068;-82
2022/11/22 07:34:19;;;;;;;11.70;4.07;;;;;;;;;;6203673;28;20049;-82
2022/11/22 07:37:21;;;;;;;13.75;3.90;;;;;;;;;;6212874;28;20045;-80
2022/11/22 07:40:22;;;;;;;9.82;4.07;;;;;;;;;;6205738;28;20060;-81
2022/11/22 07:43:24;;;;;;;8.73;4.65;;;;;;;;;;6207327;28;20042;-81
2022/11/22 07:46:31;;;;;;;12.38;4.00;;;;;;;;;;6210992;28;20521;-79
2022/11/22 07:49:33;;;;;;;12.10;5.38;;;;;;;;;;6203600;28;20422;-80
2022/11/22 07:52:36;;;;;;;13.90;5.05;;;;;;;;;;6224280;28;20183;-81
2022/11/22 07:55:37;;;;;;;14.13;2.90;;;;;;;;;;6213770;28;20670;-80
2022/11/22 07:58:39;;;;;;;15.05;6.28;;;;;;;;;;6216066;28;20136;-83
2022/11/22 08:01:42;;;;;;;10.80;4.70;;;;;;;;;;6210255;28;20045;-81
2022/11/22 08:04:44;;;;;;;15.40;3.22;;;;;;;;;;6188068;28;20113;-81
2022/11/22 08:07:50;;;;;;;9.45;3.22;;;;;;;;;;6202926;28;20525;-81
2022/11/22 08:10:52;;;;;;;8.50;4.07;;;;;;;;;;6202840;28;20048;-80
2022/11/22 08:13:54;;;;;;;7.28;3.17;;;;;;;;;;6209020;28;20046;-81
2022/11/22 08:16:56;;;;;;;17.80;16.05;;;;;;;;;;6194274;28;20037;-80
2022/11/22 08:19:58;;;;;;;22.77;14.43;;;;;;;;;;6208573;28;20037;-80
2022/11/22 08:23:00;;;;;;;13.77;9.20;;;;;;;;;;6210738;28;20117;-80
2022/11/22 08:26:02;;;;;;;21.85;16.63;;;;;;;;;;6209769;28;20046;-81
2022/11/22 08:29:06;;;;;;;10.20;6.97;;;;;;;;;;6207058;28;20133;-80
2022/11/22 08:32:14;;;;;;;21.52;19.27;;;;;;;;;;6206853;28;20053;-80
2022/11/22 08:35:16;;;;;;;25.77;23.10;;;;;;;;;;6203161;28;20052;-79
2022/11/22 08:38:18;;;;;;;10.27;6.15;;;;;;;;;;6217855;28;20291;-81
2022/11/22 08:41:20;;;;;;;13.20;9.52;;;;;;;;;;6225259;28;20057;-81
2022/11/22 08:44:21;;;;;;;12.73;8.82;;;;;;;;;;6211464;28;20038;-79
2022/11/22 08:47:23;;;;;;;12.18;7.47;;;;;;;;;;6214443;28;20121;-79
2022/11/22 08:50:25;;;;;;;11.98;6.50;;;;;;;;;;6191086;28;20113;-79
2022/11/22 08:53:28;;;;;;;6.05;3.22;;;;;;;;;;6211111;28;20207;-79
2022/11/22 08:56:30;;;;;;;;;;;;;;;;;;6217723;28;20674;-79
2022/11/22 08:59:32;;;;;;;16.27;3.80;;;;;;;;;;6202299;28;19952;-79
2022/11/22 09:02:34;;;;;;;6.80;2.35;;;;;;;;;;6206950;28;20053;-80
2022/11/22 09:05:36;;;;;;;7.47;3.10;;;;;;;;;;6205893;28;20420;-80
2022/11/22 09:08:58;;;;;;;5.85;2.80;;;;;;;;;;6222651;28;20060;-77
2022/11/22 09:12:20;;;;;;;13.88;10.65;;;;;;;;;;6220980;28;20058;-81
2022/11/22 09:15:22;;;;;;;9.52;4.45;;;;;;;;;;6215696;28;22450;-81
2022/11/22 09:18:23;;;;;;;9.40;4.57;;;;;;;;;;6217534;28;20425;-83
2022/11/22 09:21:25;;;;;;;8.70;4.00;;;;;;;;;;6217151;28;21565;-82
2022/11/22 09:24:27;;;;;;;12.05;3.97;;;;;;;;;;6213018;28;20081;-83
2022/11/22 09:27:32;;;;;;;7.00;4.35;;;;;;;;;;6215008;28;20056;-83
2022/11/22 09:30:34;;;;;;;14.35;3.40;;;;;;;;;;6214800;28;20068;-83
2022/11/22 09:33:38;;;;;;;12.15;5.07;;;;;;;;;;6220501;28;20174;-83
2022/11/22 09:36:39;;;;;;;13.10;7.53;;;;;;;;;;6204896;28;20128;-82
2022/11/22 09:39:41;;;;;;;10.05;4.40;;;;;;;;;;6227326;28;20299;-81
2022/11/22 09:43:17;;;;;;;8.70;4.72;;;;;;;;;;6217336;28;20129;-81
2022/11/22 09:46:39;;;;;;;9.82;7.65;;;;;;;;;;6209268;28;20075;-81
2022/11/22 09:49:50;;;;;;;15.85;7.72;;;;;;;;;;6216744;28;20183;-83
2022/11/22 09:52:58;;;;;;;9.82;5.20;;;;;;;;;;6217724;28;20056;-82
2022/11/22 09:56:04;;;;;;;9.98;4.93;;;;;;;;;;6206500;28;20084;-80
2022/11/22 09:59:14;;;;;;;8.57;2.17;;;;;;;;;;6209833;28;20056;-80
2022/11/22 10:02:24;;;;;;;6.78;2.80;;;;;;;;;;6205151;28;20069;-81
2022/11/22 10:05:46;;;;;;;6.40;1.75;;;;;;;;;;6205221;28;20160;-82
2022/11/22 10:09:03;;;;;;;5.30;1.60;;;;;;;;;;6214815;28;20591;-82
2022/11/22 10:12:08;;;;;;;3.38;1.65;;;;;;;;;;6212537;28;20052;-82
2022/11/22 10:15:32;;;;;;;4.15;1.65;;;;;;;;;;6205631;28;20082;-82
2022/11/22 10:18:49;;;;;;;8.38;2.20;;;;;;;;;;6209921;28;20100;-81
2022/11/22 10:21:50;;;;;;;9.38;3.10;;;;;;;;;;6207832;28;20588;-81
2022/11/22 10:24:52;;;;;;;6.72;2.25;;;;;;;;;;6215663;28;20037;-82
2022/11/22 10:28:04;;;;;;;7.05;2.33;;;;;;;;;;6219239;28;21119;-83
2022/11/22 10:31:15;;;;;;;8.73;3.22;;;;;;;;;;6212695;28;20050;-83
2022/11/22 10:34:28;;;;;;;6.53;3.00;;;;;;;;;;6215063;28;20313;-81
2022/11/22 10:38:29;;;;;;;7.18;3.88;;;;;;;;;;6212225;28;20056;-81
2022/11/22 10:41:53;;;;;;;7.88;2.83;;;;;;;;;;6186888;28;20043;-83
2022/11/22 10:45:24;;;;;;;8.30;2.67;;;;;;;;;;6206914;28;20060;-81
2022/11/22 10:48:51;;;;;;;7.82;3.20;;;;;;;;;;6208735;28;20101;-83
2022/11/22 10:52:05;;;;;;;7.90;3.33;;;;;;;;;;6215509;28;20049;-83
2022/11/22 10:55:36;;;;;;;12.00;4.05;;;;;;;;;;6207050;28;20386;-82
2022/11/22 10:58:53;;;;;;;9.45;4.50;;;;;;;;;;6228121;28;20058;-82
2022/11/22 11:02:18;;;;;;;6.72;3.92;;;;;;;;;;6208980;28;20654;-80
2022/11/22 11:05:29;;;;;;;13.05;6.30;;;;;;;;;;6185550;28;20050;-81
2022/11/22 11:08:39;;;;;;;15.70;6.43;;;;;;;;;;6200963;28;20061;-81
2022/11/22 11:12:06;;;;;;;18.88;12.75;;;;;;;;;;6223470;28;20447;-81
2022/11/22 11:15:27;;;;;;;35.08;31.55;;;;;;;;;;6212047;28;20042;-80
2022/11/22 11:18:36;;;;;;;38.63;34.70;;;;;;;;;;6191891;28;20114;-81
2022/11/22 11:21:38;;;;;;;20.95;18.00;;;;;;;;;;6206951;28;20117;-81
2022/11/22 11:24:40;;;;;;;14.15;10.30;;;;;;;;;;6214875;28;20046;-81
2022/11/22 11:27:41;;;;;;;15.98;14.35;;;;;;;;;;6211138;28;20200;-81
2022/11/22 11:30:47;;;;;;;16.80;13.45;;;;;;;;;;6196559;28;20584;-81
2022/11/22 11:33:49;;;;;;;11.13;5.78;;;;;;;;;;6214336;28;20493;-80
2022/11/22 11:36:53;;;;;;;10.77;8.32;;;;;;;;;;6209088;28;20105;-80
2022/11/22 11:39:55;;;;;;;12.02;9.20;;;;;;;;;;6210018;28;20058;-81
2022/11/22 11:43:20;;;;;;;17.73;11.90;;;;;;;;;;6194852;28;20065;-80
2022/11/22 11:46:26;;;;;;;10.30;7.15;;;;;;;;;;6217132;28;21240;-81
2022/11/22 11:49:31;;;;;;;8.30;5.93;;;;;;;;;;6218855;28;20037;-81
2022/11/22 11:52:33;;;;;;;15.50;8.18;;;;;;;;;;6214070;28;20180;-81
2022/11/22 11:55:36;;;;;;;6.25;4.15;;;;;;;;;;6213462;28;20886;-81
2022/11/22 11:58:37;;;;;;;7.93;3.63;;;;;;;;;;6218000;28;20092;-81
2022/11/22 12:01:47;;;;;;;6.55;2.28;;;;;;;;;;6209437;28;20045;-81
2022/11/22 12:04:56;;;;;;;3.45;1.38;;;;;;;;;;6205096;28;20121;-81
2022/11/22 12:07:59;;;;;;;3.05;1.48;;;;;;;;;;6215096;28;20057;-82
2022/11/22 12:11:08;;;;;;;5.68;2.00;;;;;;;;;;6220629;28;20053;-81
2022/11/22 12:14:13;;;;;;;4.22;1.83;;;;;;;;;;6218291;28;20149;-81
2022/11/22 12:17:29;;;;;;;4.80;1.83;;;;;;;;;;6222634;28;20189;-82
2022/11/22 12:20:54;;;;;;;6.32;1.63;;;;;;;;;;6205996;28;20065;-82
2022/11/22 12:24:09;;;;;;;3.90;1.77;;;;;;;;;;6234267;28;20382;-82
2022/11/22 12:27:31;;;;;;;5.63;2.20;;;;;;;;;;6209155;28;20201;-81
2022/11/22 12:30:33;;;;;;;4.45;1.50;;;;;;;;;;6210846;28;20046;-81
2022/11/22 12:33:40;;;;;;;9.88;2.22;;;;;;;;;;6205749;28;20094;-80
2022/11/22 12:36:51;;;;;;;5.75;2.63;;;;;;;;;;6205621;28;20134;-80
2022/11/22 12:39:56;;;;;;;5.25;2.33;;;;;;;;;;6222597;28;20493;-80
2022/11/22 12:43:02;;;;;;;6.50;3.05;;;;;;;;;;6205973;28;21863;-79
2022/11/22 12:46:16;;;;;;;5.07;2.15;;;;;;;;;;6210920;28;20156;-79
2022/11/22 12:49:37;;;;;;;4.95;2.25;;;;;;;;;;6211637;28;20095;-81
2022/11/22 12:52:42;;;;;;;5.05;1.85;;;;;;;;;;6216002;28;20053;-82
2022/11/22 12:56:11;;;;;;;35.25;31.90;;;;;;;;;;6208257;28;20046;-81
2022/11/22 12:59:25;;;;;;;68.28;55.67;;;;;;;;;;6204601;28;20129;-81
2022/11/22 13:02:42;;;;;;;183.45;133.00;;;;;;;;;;6207824;28;20076;-81
2022/11/22 13:05:48;;;;;;;100.13;78.05;;;;;;;;;;6205410;28;20443;-81
2022/11/22 13:08:58;;;;;;;158.13;117.35;;;;;;;;;;6217027;28;20459;-82
2022/11/22 13:12:11;;;;;;;189.40;138.38;;;;;;;;;;6200412;28;20038;-81
2022/11/22 13:15:19;;;;;;;195.02;140.48;;;;;;;;;;6207356;28;20042;-81
2022/11/22 13:18:26;;;;;;;185.93;135.18;;;;;;;;;;6212642;28;20050;-81
2022/11/22 13:22:03;;;;;;;165.75;120.88;;;;;;;;;;6206602;28;20348;-80
2022/11/22 13:25:23;;;;;;;134.15;98.78;;;;;;;;;;6215250;28;20088;-81
2022/11/22 13:28:31;;;;;;;118.25;86.25;;;;;;;;;;6212322;28;20056;-80
2022/11/22 13:31:33;;;;;;;144.63;104.15;;;;;;;;;;6214542;28;20131;-80
2022/11/22 13:35:03;;;;;;;163.85;117.75;;;;;;;;;;6215264;28;20053;-80
2022/11/22 13:38:16;;;;;;;119.43;88.35;;;;;;;;;;6213238;28;20052;-80
2022/11/22 13:41:25;;;;;;;107.00;78.93;;;;;;;;;;6209760;28;20034;-80
2022/11/22 13:44:30;;;;;;;125.45;89.95;;;;;;;;;;6206890;28;20514;-80
2022/11/22 13:47:38;;;;;;;124.10;90.60;;;;;;;;;;6237410;28;20156;-80
2022/11/22 13:50:39;;;;;;;123.22;87.43;;;;;;;;;;6211721;28;20170;-81
2022/11/22 13:53:43;;;;;;;104.30;72.82;;;;;;;;;;6216136;28;20052;-81
2022/11/22 13:56:46;;;;;;;156.73;112.60;;;;;;;;;;6204553;28;20163;-81
2022/11/22 14:00:13;;;;;;;157.32;112.07;;;;;;;;;;6214717;28;20042;-81
2022/11/22 14:06:29;;;;;;;120.10;88.00;;;;;;;;;;6230634;27;20632;-81
2022/11/22 14:09:33;;;;;;;192.25;134.77;;;;;;;;;;6190841;28;20507;-80
2022/11/22 14:12:54;;;;;;;158.05;112.22;;;;;;;;;;6202344;28;20101;-81
2022/11/22 14:16:28;;;;;;;163.52;117.35;;;;;;;;;;6200038;28;20495;-82
2022/11/22 14:19:55;;;;;;;163.25;115.95;;;;;;;;;;6180600;28;20050;-82
2022/11/22 14:23:06;;;;;;;144.18;107.05;;;;;;;;;;6192085;28;20053;-82
2022/11/22 14:26:20;;;;;;;130.93;94.15;;;;;;;;;;6186682;28;20042;-81
2022/11/22 14:29:31;;;;;;;158.40;114.10;;;;;;;;;;6207865;28;20099;-80
2022/11/22 14:32:49;;;;;;;163.98;117.82;;;;;;;;;;6209293;28;20072;-81
2022/11/22 14:36:06;;;;;;;110.05;83.63;;;;;;;;;;6217091;28;20046;-80
2022/11/22 14:39:52;;;;;;;179.95;122.78;;;;;;;;;;6205200;28;20058;-82
2022/11/22 14:42:57;;;;;;;136.38;98.45;;;;;;;;;;6208675;28;20160;-82
2022/11/22 14:46:17;;;;;;;154.35;112.75;;;;;;;;;;6211374;28;20493;-82
2022/11/22 14:49:44;;;;;;;157.98;115.70;;;;;;;;;;6205388;28;20061;-82
2022/11/22 14:52:47;;;;;;;25.75;18.92;;;;;;;;;;6220082;28;20368;-81
2022/11/22 14:55:54;;;;;;;5.00;3.27;;;;;;;;;;6205823;28;20053;-80
2022/11/22 14:59:01;;;;;;;197.45;144.50;;;;;;;;;;6206159;28;20793;-81
2022/11/22 15:02:37;;;;;;;200.77;145.48;;;;;;;;;;6218032;28;20591;-83
2022/11/22 15:05:52;;;;;;;200.40;147.52;;;;;;;;;;6201793;28;20132;-82
2022/11/22 15:09:47;;;;;;;196.25;143.40;;;;;;;;;;6202329;28;20726;-81
2022/11/22 15:13:06;;;;;;;216.95;160.32;;;;;;;;;;6201547;28;20231;-81
2022/11/22 15:16:21;;;;;;;202.20;149.63;;;;;;;;;;6198723;28;20112;-79
2022/11/22 15:19:43;;;;;;;228.05;173.27;;;;;;;;;;6203272;28;20251;-80
2022/11/22 15:23:15;;;;;;;235.27;176.85;;;;;;;;;;6179143;28;20054;-79
2022/11/22 15:26:42;;;;;;;183.20;136.32;;;;;;;;;;6176602;28;20375;-80
2022/11/22 15:30:07;;;;;;;189.65;139.18;;;;;;;;;;6178490;28;20050;-80
2022/11/22 15:33:31;;;;;;;167.90;123.85;;;;;;;;;;6183176;28;20038;-80
2022/11/22 15:37:12;;;;;;;166.95;124.03;;;;;;;;;;6176919;28;20053;-79
2022/11/22 15:40:37;;;;;;;194.77;141.25;;;;;;;;;;6176024;28;20201;-79
2022/11/22 15:44:02;;;;;;;180.88;133.68;;;;;;;;;;6192858;28;20049;-79
2022/11/22 15:47:24;;;;;;;173.00;126.72;;;;;;;;;;6186117;28;20422;-79
2022/11/22 15:51:01;;;;;;;183.25;135.82;;;;;;;;;;6177955;28;20076;-79
2022/11/22 15:54:24;;;;;;;200.25;146.00;;;;;;;;;;6184186;28;20039;-79
2022/11/22 15:57:51;;;;;;;;;;;;;;;;;;6182922;28;20078;-78
2022/11/22 16:00:56;;;;;;;198.50;150.18;;;;;;;;;;6168437;28;19925;-79
2022/11/22 16:04:20;;;;;;;190.10;141.95;;;;;;;;;;6188475;28;20042;-79
2022/11/22 16:07:31;;;;;;;196.13;144.32;;;;;;;;;;6176381;28;20054;-79
2022/11/22 16:10:37;;;;;;;198.13;146.32;;;;;;;;;;6182694;28;20426;-80
2022/11/22 16:13:39;;;;;;;205.90;152.45;;;;;;;;;;6178040;28;20065;-80
2022/11/22 16:16:41;;;;;;;196.07;143.45;;;;;;;;;;6184016;28;20111;-80
2022/11/22 16:19:42;;;;;;;204.82;149.90;;;;;;;;;;6188312;28;20064;-80
2022/11/22 16:22:44;;;;;;;211.25;154.63;;;;;;;;;;6189114;28;20054;-79
2022/11/22 16:25:49;;;;;;;209.98;152.43;;;;;;;;;;6180978;28;20542;-78
2022/11/22 16:28:52;;;;;;;213.65;153.52;;;;;;;;;;6180823;28;20045;-79
2022/11/22 16:32:11;;;;;;;215.10;157.98;;;;;;;;;;6188830;28;20045;-79
2022/11/22 16:35:14;;;;;;;203.35;149.32;;;;;;;;;;6180054;28;20050;-77
2022/11/22 16:38:30;;;;;;;214.05;157.68;;;;;;;;;;6180002;28;20137;-79
2022/11/22 16:41:33;;;;;;;218.18;160.10;;;;;;;;;;6178328;28;20050;-78
2022/11/22 16:44:35;;;;;;;228.68;163.85;;;;;;;;;;6167059;28;20491;-79
2022/11/22 16:47:37;;;;;;;211.23;155.88;;;;;;;;;;6191874;28;20847;-79
2022/11/22 16:50:39;;;;;;;239.63;175.13;;;;;;;;;;6170464;28;20133;-79
2022/11/22 16:53:44;;;;;;;225.05;165.32;;;;;;;;;;6186653;28;20081;-81
2022/11/22 16:56:46;;;;;;;243.52;181.90;;;;;;;;;;6193640;28;20057;-80
2022/11/22 16:59:48;;;;;;;229.52;169.95;;;;;;;;;;6203219;28;20069;-81
2022/11/22 17:02:49;;;;;;;226.18;165.90;;;;;;;;;;6188881;28;20077;-80
2022/11/22 17:05:51;;;;;;;238.32;178.38;;;;;;;;;;6183730;28;20483;-80
2022/11/22 17:08:55;;;;;;;221.13;164.63;;;;;;;;;;6192587;28;20170;-80
2022/11/22 17:11:57;;;;;;;221.40;165.70;;;;;;;;;;6187017;28;20053;-80
2022/11/22 17:14:59;;;;;;;231.65;172.20;;;;;;;;;;6179035;28;20061;-80
2022/11/22 17:18:00;;;;;;;221.57;164.35;;;;;;;;;;6185828;28;20584;-81
2022/11/22 17:21:30;;;;;;;231.27;169.98;;;;;;;;;;6187157;28;20100;-81
2022/11/22 17:24:38;;;;;;;235.57;174.60;;;;;;;;;;6190544;28;20050;-81
2022/11/22 17:27:39;;;;;;;231.85;173.88;;;;;;;;;;6176425;28;20128;-81
2022/11/22 17:30:41;;;;;;;217.13;161.98;;;;;;;;;;6186889;28;20518;-81
2022/11/22 17:33:43;;;;;;;215.90;157.93;;;;;;;;;;6187686;28;20125;-80
2022/11/22 17:36:45;;;;;;;234.82;175.27;;;;;;;;;;6183332;28;20042;-81
2022/11/22 17:39:50;;;;;;;235.23;174.85;;;;;;;;;;6189584;28;20053;-80
2022/11/22 17:42:51;;;;;;;233.73;173.07;;;;;;;;;;6190321;28;20082;-82
2022/11/22 17:45:53;;;;;;;218.50;159.02;;;;;;;;;;6180687;28;20160;-81
2022/11/22 17:48:58;;;;;;;208.60;149.05;;;;;;;;;;6184923;28;20053;-83
2022/11/22 17:52:00;;;;;;;218.50;156.50;;;;;;;;;;6190197;28;20061;-82
2022/11/22 17:55:01;;;;;;;228.13;164.10;;;;;;;;;;6181129;28;20179;-81
2022/11/22 17:58:08;;;;;;;225.48;161.68;;;;;;;;;;6167431;28;21640;-83
2022/11/22 18:01:18;;;;;;;223.65;159.50;;;;;;;;;;6188812;28;20435;-81
2022/11/22 18:04:19;;;;;;;222.20;160.80;;;;;;;;;;6199440;28;20046;-81
2022/11/22 18:07:22;;;;;;;229.82;167.80;;;;;;;;;;6185847;28;20046;-81
2022/11/22 18:10:24;;;;;;;;;;;;;;;;;;6143363;28;20717;-81
2022/11/22 18:13:28;;;;;;;224.75;165.38;;;;;;;;;;6192151;28;20016;-81
2022/11/22 18:16:31;;;;;;;238.30;179.00;;;;;;;;;;6183653;28;20121;-81
2022/11/22 18:19:34;;;;;;;229.60;170.18;;;;;;;;;;6189234;28;20529;-81
2022/11/22 18:22:35;;;;;;;238.13;175.70;;;;;;;;;;6183913;28;20149;-80
2022/11/22 18:25:40;;;;;;;234.57;172.43;;;;;;;;;;6185097;28;20042;-81
2022/11/22 18:28:42;;;;;;;231.63;167.40;;;;;;;;;;6181910;28;20419;-80
2022/11/22 18:32:02;;;;;;;236.93;174.65;;;;;;;;;;6184228;28;20064;-82
2022/11/22 18:35:04;;;;;;;230.88;168.95;;;;;;;;;;6177919;28;20139;-80
2022/11/22 18:38:06;;;;;;;222.95;160.38;;;;;;;;;;6175507;28;20647;-80
2022/11/22 18:41:08;;;;;;;237.68;172.32;;;;;;;;;;6185824;28;20131;-80
2022/11/22 18:44:10;;;;;;;267.63;194.55;;;;;;;;;;6182754;28;20097;-80
2022/11/22 18:47:12;;;;;;;250.38;182.77;;;;;;;;;;6177469;28;20096;-80